createdAt,value
2023-04-28T00:01:53.597Z,3.05
2023-04-28T00:04:21.282Z,3.00
2023-04-28T00:06:48.885Z,3.03
2023-04-28T00:09:16.118Z,2.83
2023-04-28T00:11:45.998Z,2.78
2023-04-28T00:14:13.736Z,2.38
2023-04-28T00:16:41.441Z,3.58
2023-04-28T00:19:09.456Z,2.85
2023-04-28T00:21:36.708Z,2.72
2023-04-28T00:24:04.035Z,3.10
2023-04-28T00:26:31.309Z,2.60
2023-04-28T00:28:58.621Z,2.85
2023-04-28T00:31:26.087Z,3.20
2023-04-28T00:33:56.219Z,3.95
2023-04-28T00:36:26.738Z,2.92
2023-04-28T00:38:54.591Z,3.30
2023-04-28T00:41:21.915Z,3.13
2023-04-28T00:43:50.453Z,3.00
2023-04-28T00:46:23.341Z,3.15
2023-04-28T00:48:51.329Z,2.80
2023-04-28T00:51:18.552Z,2.80
2023-04-28T00:53:46.210Z,2.45
2023-04-28T00:56:13.500Z,3.75
2023-04-28T00:58:41.544Z,3.13
2023-04-28T01:01:10.536Z,3.05
2023-04-28T01:03:40.448Z,3.60
2023-04-28T01:06:09.993Z,3.33
2023-04-28T01:08:39.146Z,2.60
2023-04-28T01:11:14.084Z,2.85
2023-04-28T01:13:59.427Z,3.30
2023-04-28T01:16:28.414Z,3.15
2023-04-28T01:18:56.414Z,3.20
2023-04-28T01:21:33.753Z,3.83
2023-04-28T01:24:08.859Z,3.63
2023-04-28T01:26:36.139Z,3.70
2023-04-28T01:29:03.401Z,2.95
2023-04-28T01:31:31.307Z,3.22
2023-04-28T01:33:58.928Z,3.88
2023-04-28T01:36:28.467Z,3.67
2023-04-28T01:38:56.244Z,3.67
2023-04-28T01:41:23.537Z,4.28
2023-04-28T01:43:50.796Z,3.58
2023-04-28T01:46:18.919Z,3.50
2023-04-28T01:48:46.285Z,3.65
2023-04-28T01:51:13.717Z,3.42
2023-04-28T01:53:42.051Z,3.58
2023-04-28T01:56:09.488Z,3.45
2023-04-28T01:58:36.861Z,4.30
2023-04-28T02:01:06.467Z,3.33
2023-04-28T02:03:34.070Z,4.00
2023-04-28T02:06:03.909Z,3.45
2023-04-28T02:08:31.776Z,3.58
2023-04-28T02:10:59.052Z,3.40
2023-04-28T02:13:26.317Z,4.13
2023-04-28T02:15:54.173Z,3.83
2023-04-28T02:18:22.030Z,3.45
2023-04-28T02:20:49.251Z,4.03
2023-04-28T02:23:16.478Z,3.92
2023-04-28T02:25:43.662Z,4.40
2023-04-28T02:28:14.044Z,3.65
2023-04-28T02:30:41.360Z,3.90
2023-04-28T02:33:08.623Z,3.90
2023-04-28T02:35:36.023Z,3.70
2023-04-28T02:38:03.215Z,4.93
2023-04-28T02:40:30.631Z,4.25
2023-04-28T02:42:58.194Z,4.20
2023-04-28T02:45:25.612Z,3.97
2023-04-28T02:47:53.020Z,5.13
2023-04-28T02:50:20.378Z,4.80
2023-04-28T02:52:49.070Z,4.13
2023-04-28T02:55:23.773Z,4.65
2023-04-28T02:57:52.099Z,4.07
2023-04-28T03:00:19.559Z,4.00
2023-04-28T03:02:49.214Z,3.80
2023-04-28T03:05:16.609Z,3.83
2023-04-28T03:07:44.291Z,4.43
2023-04-28T03:10:11.636Z,4.30
2023-04-28T03:12:39.082Z,4.53
2023-04-28T03:15:08.829Z,4.60
2023-04-28T03:17:39.157Z,4.53
2023-04-28T03:20:07.181Z,4.35
2023-04-28T03:22:35.012Z,4.15
2023-04-28T03:25:02.774Z,4.38
2023-04-28T03:27:33.710Z,4.75
2023-04-28T03:30:03.892Z,4.43
2023-04-28T03:32:31.252Z,4.20
2023-04-28T03:34:58.556Z,3.88
2023-04-28T03:37:26.263Z,4.32
2023-04-28T03:39:53.612Z,4.60
2023-04-28T03:42:21.081Z,4.30
2023-04-28T03:45:20.459Z,4.50
2023-04-28T03:47:47.873Z,3.92
2023-04-28T03:50:15.583Z,3.67
2023-04-28T03:52:43.088Z,5.47
2023-04-28T03:55:10.531Z,4.53
2023-04-28T03:57:37.929Z,4.80
2023-04-28T04:00:05.890Z,4.07
2023-04-28T04:02:42.709Z,4.63
2023-04-28T04:05:10.632Z,4.68
2023-04-28T04:07:38.191Z,5.68
2023-04-28T04:10:06.764Z,4.15
2023-04-28T04:12:35.802Z,5.10
2023-04-28T04:15:04.201Z,5.57
2023-04-28T04:17:31.736Z,5.65
2023-04-28T04:19:59.079Z,5.22
2023-04-28T04:22:27.425Z,4.70
2023-04-28T04:24:54.630Z,4.32
2023-04-28T04:27:22.762Z,4.60
2023-04-28T04:29:50.291Z,4.53
2023-04-28T04:32:17.658Z,4.78
2023-04-28T04:34:44.919Z,4.63
2023-04-28T04:37:12.608Z,4.72
2023-04-28T04:39:46.526Z,4.57
2023-04-28T04:42:24.820Z,4.60
2023-04-28T04:45:03.946Z,4.90
2023-04-28T04:47:31.986Z,4.90
2023-04-28T04:49:59.627Z,4.57
2023-04-28T04:52:33.102Z,4.30
2023-04-28T04:55:00.936Z,4.72
2023-04-28T04:57:29.162Z,4.60
2023-04-28T05:00:08.088Z,4.43
2023-04-28T05:02:37.053Z,4.57
2023-04-28T05:05:19.630Z,6.90
2023-04-28T05:07:52.364Z,3.75
2023-04-28T05:10:21.736Z,4.57
2023-04-28T05:12:49.443Z,4.18
2023-04-28T05:15:18.564Z,4.32
2023-04-28T05:18:01.328Z,4.60
2023-04-28T05:20:28.709Z,4.10
2023-04-28T05:22:56.047Z,4.65
2023-04-28T05:25:23.528Z,4.82
2023-04-28T05:27:50.806Z,4.43
2023-04-28T05:30:18.109Z,4.45
2023-04-28T05:32:46.223Z,5.28
2023-04-28T05:35:13.699Z,4.90
2023-04-28T05:37:43.486Z,4.68
2023-04-28T05:40:11.128Z,4.80
2023-04-28T05:42:38.321Z,4.28
2023-04-28T05:45:06.960Z,4.45
2023-04-28T05:47:34.489Z,4.43
2023-04-28T05:50:01.831Z,4.63
2023-04-28T05:52:29.051Z,4.18
2023-04-28T05:54:56.323Z,4.75
2023-04-28T05:57:23.581Z,5.53
2023-04-28T05:59:51.160Z,4.20
2023-04-28T06:02:20.447Z,4.60
2023-04-28T06:04:49.631Z,5.18
2023-04-28T06:07:17.174Z,4.43
2023-04-28T06:09:44.928Z,4.45
2023-04-28T06:12:12.237Z,5.22
2023-04-28T06:14:40.674Z,4.60
2023-04-28T06:17:08.847Z,4.13
2023-04-28T06:19:36.137Z,4.35
2023-04-28T06:22:03.470Z,4.75
2023-04-28T06:24:30.836Z,4.93
2023-04-28T06:26:59.216Z,4.40
2023-04-28T06:29:27.942Z,4.13
2023-04-28T06:31:57.802Z,3.83
2023-04-28T06:34:30.865Z,4.53
2023-04-28T06:37:01.312Z,4.18
2023-04-28T06:39:28.688Z,4.85
2023-04-28T06:41:56.098Z,4.63
2023-04-28T06:44:26.323Z,4.55
2023-04-28T06:46:53.647Z,4.82
2023-04-28T06:49:21.145Z,4.72
2023-04-28T06:51:48.504Z,4.35
2023-04-28T06:54:16.856Z,4.55
2023-04-28T06:56:44.928Z,4.72
2023-04-28T06:59:12.158Z,5.18
2023-04-28T07:01:39.543Z,4.28
2023-04-28T07:04:07.005Z,4.70
2023-04-28T07:06:34.478Z,4.80
2023-04-28T07:09:01.950Z,4.50
2023-04-28T07:11:29.188Z,4.22
2023-04-28T07:13:56.612Z,4.32
2023-04-28T07:16:23.914Z,4.88
2023-04-28T07:18:51.188Z,4.72
2023-04-28T07:21:18.386Z,4.82
2023-04-28T07:23:45.968Z,4.40
2023-04-28T07:26:16.240Z,4.88
2023-04-28T07:28:44.879Z,5.13
2023-04-28T07:31:12.147Z,5.97
2023-04-28T07:33:39.417Z,4.75
2023-04-28T07:36:07.074Z,4.82
2023-04-28T07:38:35.629Z,5.03
2023-04-28T07:41:04.017Z,4.68
2023-04-28T07:43:32.077Z,4.60
2023-04-28T07:45:59.450Z,4.45
2023-04-28T07:48:27.428Z,4.32
2023-04-28T07:50:54.691Z,4.90
2023-04-28T07:53:22.231Z,5.18
2023-04-28T07:55:49.486Z,5.18
2023-04-28T07:58:17.105Z,5.03
2023-04-28T08:00:44.589Z,4.75
2023-04-28T08:03:12.205Z,5.38
2023-04-28T08:05:40.009Z,5.25
2023-04-28T08:08:07.641Z,5.78
2023-04-28T08:10:35.034Z,4.57
2023-04-28T08:13:03.276Z,5.40
2023-04-28T08:15:30.732Z,4.85
2023-04-28T08:17:58.249Z,4.63
2023-04-28T08:20:25.670Z,5.32
2023-04-28T08:22:53.348Z,5.03
2023-04-28T08:25:20.776Z,5.03
2023-04-28T08:27:48.089Z,5.65
2023-04-28T08:30:15.510Z,5.68
2023-04-28T08:32:42.913Z,6.15
2023-04-28T08:35:10.428Z,4.75
2023-04-28T08:37:37.744Z,5.35
2023-04-28T08:40:09.850Z,6.07
2023-04-28T08:42:37.850Z,6.40
2023-04-28T08:45:05.691Z,4.93
2023-04-28T08:47:39.758Z,6.20
2023-04-28T08:50:08.529Z,5.78
2023-04-28T08:52:36.837Z,5.88
2023-04-28T08:55:09.792Z,5.22
2023-04-28T08:57:44.756Z,5.78
2023-04-28T09:00:13.010Z,5.70
2023-04-28T09:02:42.631Z,5.45
2023-04-28T09:05:12.089Z,6.20
2023-04-28T09:07:43.655Z,6.00
2023-04-28T09:10:22.584Z,5.72
2023-04-28T09:12:55.118Z,6.10
2023-04-28T09:15:34.468Z,5.63
2023-04-28T09:18:07.245Z,5.07
2023-04-28T09:20:36.235Z,6.32
2023-04-28T09:23:18.233Z,6.88
2023-04-28T09:26:06.553Z,6.10
2023-04-28T09:28:35.646Z,7.18
2023-04-28T09:31:04.098Z,6.57
2023-04-28T09:33:31.606Z,6.78
2023-04-28T09:35:58.922Z,5.88
2023-04-28T09:38:26.435Z,6.18
2023-04-28T09:40:56.714Z,5.88
2023-04-28T09:43:28.884Z,6.90
2023-04-28T09:45:57.951Z,6.55
2023-04-28T09:48:38.415Z,7.18
2023-04-28T09:51:07.864Z,6.68
2023-04-28T09:53:37.909Z,6.82
2023-04-28T09:56:05.563Z,6.40
2023-04-28T09:58:35.152Z,6.22
2023-04-28T10:01:03.385Z,7.10
2023-04-28T10:03:31.349Z,7.00
2023-04-28T10:05:59.453Z,6.43
2023-04-28T10:08:27.836Z,6.57
2023-04-28T10:10:56.951Z,6.70
2023-04-28T10:13:25.061Z,6.18
2023-04-28T10:15:55.409Z,6.35
2023-04-28T10:18:24.519Z,6.10
2023-04-28T10:20:59.974Z,6.32
2023-04-28T10:23:47.910Z,6.90
2023-04-28T10:26:19.921Z,5.80
2023-04-28T10:28:52.013Z,6.53
2023-04-28T10:31:23.717Z,6.20
2023-04-28T10:33:51.076Z,6.60
2023-04-28T10:36:47.453Z,6.20
2023-04-28T10:39:15.289Z,7.00
2023-04-28T10:41:42.637Z,6.63
2023-04-28T10:44:28.563Z,5.60
2023-04-28T10:47:08.093Z,6.00
2023-04-28T10:50:01.053Z,7.38
2023-04-28T10:52:35.292Z,6.05
2023-04-28T10:55:39.894Z,5.68
2023-04-28T10:58:27.314Z,5.25
2023-04-28T11:00:54.604Z,6.50
2023-04-28T11:03:46.986Z,6.50
2023-04-28T11:06:26.595Z,5.88
2023-04-28T11:09:06.092Z,5.97
2023-04-28T11:11:38.933Z,6.88
2023-04-28T11:14:18.276Z,6.72
2023-04-28T11:17:01.414Z,5.78
2023-04-28T11:19:33.850Z,5.88
2023-04-28T11:22:03.213Z,6.25
2023-04-28T11:24:31.354Z,5.85
2023-04-28T11:26:59.548Z,5.82
2023-04-28T11:29:37.692Z,5.03
2023-04-28T11:32:07.017Z,5.45
2023-04-28T11:34:35.448Z,5.57
2023-04-28T11:37:03.430Z,5.63
2023-04-28T11:39:32.793Z,5.32
2023-04-28T11:42:02.451Z,5.57
2023-04-28T11:44:31.135Z,6.10
2023-04-28T11:47:01.386Z,5.72
2023-04-28T11:49:45.921Z,5.43
2023-04-28T11:52:13.785Z,4.93
2023-04-28T11:54:43.953Z,5.10
2023-04-28T11:57:18.841Z,5.53
2023-04-28T11:59:46.575Z,5.63
2023-04-28T12:02:14.257Z,6.20
2023-04-28T12:04:43.544Z,5.25
2023-04-28T12:07:13.460Z,5.22
2023-04-28T12:09:49.141Z,5.82
2023-04-28T12:12:40.230Z,5.15
2023-04-28T12:15:18.203Z,5.25
2023-04-28T12:17:47.436Z,5.95
2023-04-28T12:20:35.360Z,5.70
2023-04-28T12:23:02.903Z,5.35
2023-04-28T12:25:30.429Z,5.55
2023-04-28T12:28:07.458Z,4.93
2023-04-28T12:30:38.881Z,5.38
2023-04-28T12:33:06.488Z,5.57
2023-04-28T12:35:33.872Z,4.82
2023-04-28T12:38:01.094Z,4.65
2023-04-28T12:40:28.366Z,5.43
2023-04-28T12:42:57.137Z,4.82
2023-04-28T12:45:24.912Z,4.93
2023-04-28T12:47:52.857Z,4.90
2023-04-28T12:50:20.399Z,5.22
2023-04-28T12:52:47.603Z,4.03
2023-04-28T12:55:15.115Z,4.00
2023-04-28T12:57:42.510Z,4.93
2023-04-28T13:00:10.609Z,4.53
2023-04-28T13:02:38.356Z,4.00
2023-04-28T13:05:06.531Z,3.25
2023-04-28T13:07:34.354Z,3.45
2023-04-28T13:10:01.665Z,3.67
2023-04-28T13:12:29.015Z,4.05
2023-04-28T13:14:56.186Z,3.95
2023-04-28T13:17:23.580Z,4.20
2023-04-28T13:19:50.947Z,4.05
2023-04-28T13:22:18.374Z,4.22
2023-04-28T13:24:45.735Z,3.38
2023-04-28T13:27:13.546Z,4.15
2023-04-28T13:29:41.192Z,3.80
2023-04-28T13:32:08.743Z,4.45
2023-04-28T13:34:38.046Z,4.03
2023-04-28T13:37:05.252Z,5.85
2023-04-28T13:39:32.767Z,5.13
2023-04-28T13:42:00.203Z,4.65
2023-04-28T13:44:27.543Z,4.75
2023-04-28T13:46:54.922Z,5.30
2023-04-28T13:49:23.718Z,4.80
2023-04-28T13:51:50.978Z,5.32
2023-04-28T13:54:18.337Z,4.97
2023-04-28T13:56:45.970Z,4.32
2023-04-28T13:59:13.599Z,4.10
2023-04-28T14:01:41.077Z,3.60
2023-04-28T14:04:08.613Z,3.30
2023-04-28T14:06:37.164Z,3.33
2023-04-28T14:09:04.584Z,3.30
2023-04-28T14:11:31.928Z,3.42
2023-04-28T14:13:59.378Z,2.95
2023-04-28T14:16:27.536Z,3.13
2023-04-28T14:18:55.617Z,2.10
2023-04-28T14:21:22.917Z,7.50
2023-04-28T14:23:50.152Z,2.15
2023-04-28T14:26:17.512Z,1.83
2023-04-28T14:28:44.711Z,2.22
2023-04-28T14:31:12.539Z,1.92
2023-04-28T14:33:40.262Z,1.42
2023-04-28T14:36:07.487Z,1.50
2023-04-28T14:38:34.898Z,1.20
2023-04-28T14:41:02.119Z,1.10
2023-04-28T14:43:29.371Z,0.80
2023-04-28T14:45:56.683Z,0.93
2023-04-28T14:48:24.203Z,0.60
2023-04-28T14:50:51.724Z,0.90
2023-04-28T14:53:19.068Z,0.55
2023-04-28T14:55:46.388Z,1.17
2023-04-28T14:58:13.612Z,0.95
2023-04-28T15:00:41.030Z,1.10
2023-04-28T15:03:11.669Z,1.38
2023-04-28T15:05:39.452Z,0.80
2023-04-28T15:08:06.952Z,1.02
2023-04-28T15:10:39.375Z,0.80
2023-04-28T15:13:07.520Z,2.53
2023-04-28T15:15:35.363Z,3.25
2023-04-28T15:18:04.486Z,0.73
2023-04-28T15:20:37.110Z,1.20
2023-04-28T15:23:04.432Z,2.20
2023-04-28T15:25:31.674Z,2.30
2023-04-28T15:27:58.971Z,3.10
2023-04-28T15:30:26.352Z,1.13
2023-04-28T15:32:53.847Z,1.48
2023-04-28T15:35:22.085Z,1.25
2023-04-28T15:37:52.191Z,1.40
2023-04-28T15:40:21.028Z,1.40
2023-04-28T15:42:49.084Z,1.30
2023-04-28T15:45:17.082Z,1.25
2023-04-28T15:47:47.237Z,1.80
2023-04-28T15:50:16.105Z,2.40
2023-04-28T15:52:46.071Z,1.85
2023-04-28T15:55:15.255Z,2.13
2023-04-28T15:57:43.579Z,1.73
2023-04-28T16:00:11.679Z,2.13
2023-04-28T16:02:39.570Z,2.10
2023-04-28T16:05:07.584Z,2.05
2023-04-28T16:07:39.137Z,2.03
2023-04-28T16:10:09.132Z,1.95
2023-04-28T16:12:37.333Z,2.28
2023-04-28T16:15:05.487Z,2.08
2023-04-28T16:17:34.142Z,2.72
2023-04-28T16:20:01.970Z,2.67
2023-04-28T16:22:29.711Z,2.10
2023-04-28T16:24:57.647Z,2.05
2023-04-28T16:27:24.938Z,1.90
2023-04-28T16:29:52.548Z,1.67
2023-04-28T16:32:20.159Z,1.85
2023-04-28T16:34:47.560Z,1.45
2023-04-28T16:37:15.160Z,1.83
2023-04-28T16:39:42.456Z,2.00
2023-04-28T16:42:09.701Z,2.53
2023-04-28T16:44:36.953Z,1.38
2023-04-28T16:47:04.552Z,1.30
2023-04-28T16:49:31.915Z,2.95
2023-04-28T16:52:01.272Z,1.50
2023-04-28T16:54:30.069Z,1.25
2023-04-28T16:56:58.490Z,1.20
2023-04-28T16:59:29.652Z,2.10
2023-04-28T17:02:04.234Z,0.93
2023-04-28T17:04:32.058Z,1.30
2023-04-28T17:06:59.723Z,1.20
2023-04-28T17:09:28.028Z,1.30
2023-04-28T17:11:55.454Z,1.33
2023-04-28T17:14:22.912Z,1.50
2023-04-28T17:16:50.376Z,1.25
2023-04-28T17:19:17.802Z,1.52
2023-04-28T17:21:46.351Z,2.25
2023-04-28T17:24:13.574Z,1.05
2023-04-28T17:26:41.595Z,0.88
2023-04-28T17:29:08.953Z,1.30
2023-04-28T17:31:38.820Z,1.33
2023-04-28T17:34:06.484Z,1.48
2023-04-28T17:36:33.802Z,1.40
2023-04-28T17:39:01.338Z,1.10
2023-04-28T17:41:28.616Z,1.80
2023-04-28T17:43:56.264Z,1.38
2023-04-28T17:46:23.888Z,1.17
2023-04-28T17:48:51.524Z,1.60
2023-04-28T17:51:19.549Z,1.00
2023-04-28T17:53:48.614Z,1.20
2023-04-28T17:56:16.266Z,1.08
2023-04-28T17:58:43.798Z,1.08
2023-04-28T18:01:11.550Z,3.30
2023-04-28T18:03:39.592Z,1.33
2023-04-28T18:06:08.158Z,1.30
2023-04-28T18:08:36.972Z,1.35
2023-04-28T18:11:04.859Z,1.20
2023-04-28T18:13:33.096Z,1.17
2023-04-28T18:16:00.924Z,1.27
2023-04-28T18:18:48.066Z,1.40
2023-04-28T18:21:16.534Z,1.48
2023-04-28T18:23:44.048Z,1.30
2023-04-28T18:26:11.384Z,0.95
2023-04-28T18:28:38.595Z,1.60
2023-04-28T18:31:06.457Z,1.10
2023-04-28T18:33:33.713Z,1.52
2023-04-28T18:36:01.857Z,1.40
2023-04-28T18:38:30.969Z,6.55
2023-04-28T18:40:58.338Z,1.30
2023-04-28T18:43:27.839Z,1.42
2023-04-28T18:45:55.341Z,1.80
2023-04-28T18:48:23.495Z,1.65
2023-04-28T18:50:50.899Z,1.77
2023-04-28T18:53:18.158Z,1.42
2023-04-28T18:55:45.630Z,1.65
2023-04-28T18:58:14.930Z,1.98
2023-04-28T19:00:45.738Z,2.22
2023-04-28T19:03:14.056Z,2.25
2023-04-28T19:05:45.623Z,2.22
2023-04-28T19:08:13.097Z,2.08
2023-04-28T19:10:43.072Z,1.77
2023-04-28T19:13:10.906Z,1.70
2023-04-28T19:15:38.336Z,2.15
2023-04-28T19:18:05.632Z,2.45
2023-04-28T19:20:33.049Z,2.42
2023-04-28T19:23:03.779Z,1.90
2023-04-28T19:25:33.534Z,1.95
2023-04-28T19:28:00.988Z,2.42
2023-04-28T19:30:28.318Z,2.40
2023-04-28T19:32:55.691Z,3.67
2023-04-28T19:35:23.350Z,2.95
2023-04-28T19:37:50.805Z,2.67
2023-04-28T19:40:18.057Z,2.30
2023-04-28T19:42:45.407Z,2.53
2023-04-28T19:45:12.824Z,2.20
2023-04-28T19:47:40.127Z,2.72
2023-04-28T19:50:10.129Z,2.10
2023-04-28T19:52:37.522Z,1.95
2023-04-28T19:55:05.155Z,2.28
2023-04-28T19:57:32.480Z,2.78
2023-04-28T19:59:59.727Z,2.42
2023-04-28T20:02:27.256Z,2.72
2023-04-28T20:04:56.542Z,2.50
2023-04-28T20:07:23.905Z,2.10
2023-04-28T20:09:52.572Z,2.25
2023-04-28T20:12:20.114Z,2.35
2023-04-28T20:14:47.381Z,2.45
2023-04-28T20:17:16.152Z,2.65
2023-04-28T20:19:44.397Z,2.28
2023-04-28T20:22:11.635Z,2.08
2023-04-28T20:24:39.516Z,3.30
2023-04-28T20:27:07.181Z,6.13
2023-04-28T20:29:35.066Z,2.80
2023-04-28T20:32:03.194Z,3.10
2023-04-28T20:34:31.573Z,2.70
2023-04-28T20:36:59.567Z,2.30
2023-04-28T20:39:26.892Z,2.88
2023-04-28T20:41:54.357Z,2.13
2023-04-28T20:44:21.899Z,2.60
2023-04-28T20:46:49.336Z,2.40
2023-04-28T20:49:16.950Z,2.67
2023-04-28T20:51:45.337Z,9.63
2023-04-28T20:54:13.017Z,3.70
2023-04-28T20:56:41.961Z,3.30
2023-04-28T20:59:09.437Z,2.75
2023-04-28T21:01:36.795Z,2.47
2023-04-28T21:04:04.329Z,2.50
2023-04-28T21:06:31.605Z,2.90
2023-04-28T21:08:59.370Z,2.28
2023-04-28T21:11:27.091Z,2.47
2023-04-28T21:13:54.345Z,2.70
2023-04-28T21:16:21.950Z,2.55
2023-04-28T21:18:49.751Z,2.78
2023-04-28T21:21:18.240Z,2.70
2023-04-28T21:23:45.760Z,2.80
2023-04-28T21:26:13.469Z,2.40
2023-04-28T21:28:41.636Z,3.08
2023-04-28T21:31:09.788Z,2.20
2023-04-28T21:33:37.309Z,2.72
2023-04-28T21:36:09.047Z,2.28
2023-04-28T21:38:37.963Z,2.17
2023-04-28T21:41:07.379Z,2.33
2023-04-28T21:43:35.321Z,2.97
2023-04-28T21:46:02.873Z,2.92
2023-04-28T21:48:30.211Z,2.13
2023-04-28T21:50:58.208Z,2.78
2023-04-28T21:53:25.543Z,3.35
2023-04-28T21:55:53.108Z,3.10
2023-04-28T21:58:20.554Z,2.63
2023-04-28T22:00:48.341Z,2.83
2023-04-28T22:03:16.156Z,3.63
2023-04-28T22:05:45.127Z,3.42
2023-04-28T22:08:13.946Z,3.60
2023-04-28T22:10:41.606Z,4.63
2023-04-28T22:13:09.117Z,5.20
2023-04-28T22:15:36.754Z,3.72
2023-04-28T22:18:04.662Z,4.78
2023-04-28T22:20:32.503Z,4.40
2023-04-28T22:23:00.267Z,4.05
2023-04-28T22:25:27.647Z,3.90
2023-04-28T22:27:54.950Z,4.00
2023-04-28T22:30:24.346Z,4.40
2023-04-28T22:32:53.194Z,4.57
2023-04-28T22:35:20.650Z,4.10
2023-04-28T22:37:48.019Z,4.25
2023-04-28T22:40:15.347Z,4.40
2023-04-28T22:42:43.321Z,4.28
2023-04-28T22:45:11.598Z,3.97
2023-04-28T22:47:40.881Z,4.47
2023-04-28T22:50:10.733Z,4.05
2023-04-28T22:52:38.212Z,4.57
2023-04-28T22:55:06.398Z,3.85
2023-04-28T22:57:34.127Z,3.60
2023-04-28T23:00:01.961Z,3.95
2023-04-28T23:02:29.446Z,4.32
2023-04-28T23:04:57.027Z,3.83
2023-04-28T23:07:24.540Z,4.22
2023-04-28T23:09:52.103Z,4.60
2023-04-28T23:12:19.803Z,4.80
2023-04-28T23:14:47.117Z,4.75
2023-04-28T23:17:14.375Z,5.20
2023-04-28T23:19:41.704Z,5.38
2023-04-28T23:22:09.031Z,6.38
2023-04-28T23:24:37.935Z,6.47
2023-04-28T23:27:05.645Z,5.72
2023-04-28T23:29:33.155Z,5.70
2023-04-28T23:32:00.520Z,6.10
2023-04-28T23:34:28.376Z,6.10
2023-04-28T23:36:55.657Z,6.45
2023-04-28T23:39:23.048Z,7.65
2023-04-28T23:41:51.078Z,6.47
2023-04-28T23:44:18.708Z,6.50
2023-04-28T23:46:45.933Z,6.35
2023-04-28T23:49:13.614Z,6.93
2023-04-28T23:51:41.210Z,6.07
2023-04-28T23:54:09.543Z,6.55
2023-04-28T23:56:36.846Z,6.40
2023-04-28T23:59:04.873Z,6.80
